createdAt,value
2022-08-25T00:00:05.611Z,82.62
2022-08-25T00:01:07.490Z,82.92
2022-08-25T00:02:05.557Z,82.71
2022-08-25T00:03:05.586Z,82.42
2022-08-25T00:04:05.528Z,83.02
2022-08-25T00:05:05.527Z,83.32
2022-08-25T00:06:05.564Z,83.52
2022-08-25T00:07:05.454Z,83.72
2022-08-25T00:08:06.661Z,83.42
2022-08-25T00:09:05.443Z,83.72
2022-08-25T00:10:05.461Z,84.03
2022-08-25T00:11:05.369Z,83.72
2022-08-25T00:12:06.924Z,84.03
2022-08-25T00:13:05.369Z,84.67
2022-08-25T00:14:05.404Z,84.74
2022-08-25T00:15:05.337Z,84.57
2022-08-25T00:16:05.340Z,84.97
2022-08-25T00:17:05.305Z,85.08
2022-08-25T00:18:05.748Z,84.77
2022-08-25T00:19:06.328Z,85.08
2022-08-25T00:20:05.326Z,85.08
2022-08-25T00:21:05.359Z,85.28
2022-08-25T00:22:05.236Z,85.48
2022-08-25T00:23:05.295Z,85.28
2022-08-25T00:24:05.226Z,85.38
2022-08-25T00:25:06.708Z,85.28
2022-08-25T00:26:05.189Z,85.68
2022-08-25T00:27:05.181Z,85.88
2022-08-25T00:28:08.498Z,85.58
2022-08-25T00:29:05.168Z,85.58
2022-08-25T00:30:05.411Z,86.18
2022-08-25T00:31:05.226Z,86.49
2022-08-25T00:32:05.109Z,85.78
2022-08-25T00:33:05.208Z,86.38
2022-08-25T00:34:05.079Z,86.53
2022-08-25T00:35:05.079Z,86.22
2022-08-25T00:36:05.063Z,86.53
2022-08-25T00:37:05.074Z,86.83
2022-08-25T00:38:05.223Z,86.83
2022-08-25T00:39:05.011Z,87.23
2022-08-25T00:40:05.152Z,87.34
2022-08-25T00:41:05.038Z,88.04
2022-08-25T00:42:05.005Z,87.84
2022-08-25T00:43:06.124Z,87.54
2022-08-25T00:44:05.062Z,87.63
2022-08-25T00:45:04.951Z,87.54
2022-08-25T00:46:04.972Z,87.84
2022-08-25T00:47:04.924Z,88.04
2022-08-25T00:48:05.078Z,87.94
2022-08-25T00:49:04.927Z,87.94
2022-08-25T00:50:06.259Z,88.14
2022-08-25T00:51:04.965Z,88.04
2022-08-25T00:52:04.897Z,87.84
2022-08-25T00:53:04.847Z,88.14
2022-08-25T00:54:04.866Z,88.75
2022-08-25T00:55:08.027Z,88.65
2022-08-25T00:56:04.824Z,88.65
2022-08-25T00:57:04.863Z,89.05
2022-08-25T00:58:04.963Z,88.95
2022-08-25T00:59:04.765Z,89.55
2022-08-25T01:00:04.767Z,89.86
2022-08-25T01:01:04.773Z,89.86
2022-08-25T01:02:04.880Z,89.95
2022-08-25T01:03:06.194Z,89.86
2022-08-25T01:04:04.715Z,90.16
2022-08-25T01:05:04.671Z,89.75
2022-08-25T01:06:04.651Z,89.75
2022-08-25T01:07:04.647Z,89.65
2022-08-25T01:08:06.675Z,89.45
2022-08-25T01:09:04.672Z,89.45
2022-08-25T01:10:04.670Z,89.95
2022-08-25T01:11:04.683Z,89.95
2022-08-25T01:12:05.071Z,90.06
2022-08-25T01:13:04.593Z,90.16
2022-08-25T01:14:04.711Z,90.46
2022-08-25T01:15:04.552Z,91.06
2022-08-25T01:16:05.592Z,90.86
2022-08-25T01:17:04.568Z,91.17
2022-08-25T01:18:04.726Z,91.06
2022-08-25T01:19:04.483Z,91.21
2022-08-25T01:20:04.518Z,91.11
2022-08-25T01:21:04.493Z,91.01
2022-08-25T01:22:04.566Z,91.82
2022-08-25T01:23:04.435Z,91.82
2022-08-25T01:24:05.206Z,92.12
2022-08-25T01:25:04.456Z,92.02
2022-08-25T01:26:04.438Z,92.02
2022-08-25T01:27:04.448Z,92.12
2022-08-25T01:28:04.707Z,92.32
2022-08-25T01:29:04.365Z,92.22
2022-08-25T01:30:04.357Z,92.22
2022-08-25T01:31:04.391Z,92.62
2022-08-25T01:32:05.374Z,92.93
2022-08-25T01:33:04.366Z,92.82
2022-08-25T01:34:04.405Z,92.52
2022-08-25T01:35:04.347Z,92.72
2022-08-25T01:36:04.298Z,92.82
2022-08-25T01:37:04.367Z,92.82
2022-08-25T01:38:04.491Z,93.13
2022-08-25T01:39:04.255Z,93.02
2022-08-25T01:40:04.261Z,92.82
2022-08-25T01:41:04.238Z,93.02
2022-08-25T01:42:04.249Z,93.13
2022-08-25T01:43:04.226Z,93.23
2022-08-25T01:44:04.192Z,92.82
2022-08-25T01:45:04.169Z,92.93
2022-08-25T01:46:04.190Z,93.23
2022-08-25T01:47:04.131Z,93.33
2022-08-25T01:48:05.098Z,93.23
2022-08-25T01:49:06.828Z,93.63
2022-08-25T01:50:04.335Z,93.73
2022-08-25T01:51:04.125Z,93.73
2022-08-25T01:52:04.074Z,93.63
2022-08-25T01:53:04.073Z,93.63
2022-08-25T01:54:04.883Z,93.53
2022-08-25T01:55:04.282Z,93.73
2022-08-25T01:56:05.502Z,93.68
2022-08-25T01:57:04.088Z,94.38
2022-08-25T01:58:04.182Z,94.59
2022-08-25T01:59:03.975Z,94.48
2022-08-25T02:00:04.031Z,94.59
2022-08-25T02:01:04.044Z,94.18
2022-08-25T02:02:04.851Z,94.08
2022-08-25T02:03:04.241Z,94.08
2022-08-25T02:04:04.960Z,94.08
2022-08-25T02:05:03.977Z,94.38
2022-08-25T02:06:04.217Z,94.73
2022-08-25T02:07:03.955Z,95.09
2022-08-25T02:08:04.120Z,95.29
2022-08-25T02:09:03.865Z,95.49
2022-08-25T02:10:03.857Z,95.90
2022-08-25T02:11:03.818Z,95.79
2022-08-25T02:12:03.825Z,95.79
2022-08-25T02:13:03.800Z,95.70
2022-08-25T02:14:03.780Z,95.49
2022-08-25T02:15:04.912Z,96.00
2022-08-25T02:16:03.760Z,96.00
2022-08-25T02:17:03.830Z,96.00
2022-08-25T02:18:03.789Z,96.00
2022-08-25T02:19:03.747Z,95.90
2022-08-25T02:20:03.762Z,95.84
2022-08-25T02:21:03.724Z,95.84
2022-08-25T02:22:03.694Z,95.74
2022-08-25T02:23:03.670Z,95.84
2022-08-25T02:24:03.686Z,95.94
2022-08-25T02:25:03.643Z,95.94
2022-08-25T02:26:03.643Z,96.04
2022-08-25T02:27:03.615Z,95.94
2022-08-25T02:28:04.874Z,96.04
2022-08-25T02:29:03.614Z,96.04
2022-08-25T02:30:03.645Z,96.09
2022-08-25T02:31:03.580Z,95.98
2022-08-25T02:32:04.815Z,96.29
2022-08-25T02:33:03.554Z,96.19
2022-08-25T02:34:03.572Z,96.29
2022-08-25T02:35:03.543Z,96.19
2022-08-25T02:36:03.549Z,96.39
2022-08-25T02:37:03.495Z,96.59
2022-08-25T02:38:03.529Z,96.49
2022-08-25T02:39:04.138Z,96.49
2022-08-25T02:40:03.548Z,96.29
2022-08-25T02:41:03.446Z,96.39
2022-08-25T02:42:03.417Z,96.39
2022-08-25T02:43:03.479Z,96.54
2022-08-25T02:44:03.421Z,96.44
2022-08-25T02:45:03.530Z,96.54
2022-08-25T02:46:03.442Z,96.94
2022-08-25T02:47:03.357Z,96.94
2022-08-25T02:48:03.382Z,96.94
2022-08-25T02:49:03.393Z,97.65
2022-08-25T02:50:03.412Z,97.55
2022-08-25T02:51:03.301Z,97.45
2022-08-25T02:52:14.314Z,97.45
2022-08-25T02:53:03.846Z,97.55
2022-08-25T02:54:09.300Z,97.45
2022-08-25T02:55:03.249Z,97.25
2022-08-25T02:56:03.257Z,97.55
2022-08-25T02:57:03.269Z,97.45
2022-08-25T02:58:03.257Z,97.25
2022-08-25T02:59:03.272Z,97.14
2022-08-25T03:00:03.235Z,97.14
2022-08-25T03:01:03.333Z,97.14
2022-08-25T03:02:03.176Z,97.29
2022-08-25T03:03:03.193Z,97.19
2022-08-25T03:04:03.186Z,97.19
2022-08-25T03:05:03.175Z,97.49
2022-08-25T03:06:07.149Z,97.49
2022-08-25T03:07:08.046Z,97.49
2022-08-25T03:08:23.225Z,97.49
2022-08-25T03:09:10.382Z,97.69
2022-08-25T03:10:08.031Z,97.69
2022-08-25T03:11:11.841Z,97.60
2022-08-25T03:12:10.947Z,97.69
2022-08-25T03:13:03.755Z,97.80
2022-08-25T03:14:25.923Z,98.00
2022-08-25T03:15:05.252Z,98.00
2022-08-25T03:16:18.965Z,97.90
2022-08-25T03:17:04.029Z,98.10
2022-08-25T03:18:09.841Z,98.10
2022-08-25T03:19:16.167Z,98.40
2022-08-25T03:20:09.553Z,98.61
2022-08-25T03:21:02.938Z,98.76
2022-08-25T03:22:03.023Z,98.66
2022-08-25T03:23:03.069Z,98.46
2022-08-25T03:24:02.897Z,98.30
2022-08-25T03:25:02.883Z,98.30
2022-08-25T03:26:02.934Z,98.40
2022-08-25T03:27:02.841Z,98.50
2022-08-25T03:28:02.928Z,98.61
2022-08-25T03:29:02.832Z,98.91
2022-08-25T03:30:02.828Z,98.91
2022-08-25T03:31:02.834Z,98.91
2022-08-25T03:32:02.832Z,98.91
2022-08-25T03:33:02.784Z,98.91
2022-08-25T03:34:02.821Z,98.91
2022-08-25T03:35:02.751Z,98.91
2022-08-25T03:36:02.746Z,98.91
2022-08-25T03:37:02.703Z,99.01
2022-08-25T03:38:02.696Z,99.07
2022-08-25T03:39:02.737Z,99.07
2022-08-25T03:40:02.723Z,99.16
2022-08-25T03:41:02.646Z,99.27
2022-08-25T03:42:02.755Z,99.27
2022-08-25T03:43:02.637Z,99.47
2022-08-25T03:44:02.635Z,99.47
2022-08-25T03:45:02.615Z,99.27
2022-08-25T03:46:02.714Z,99.11
2022-08-25T03:47:02.606Z,99.47
2022-08-25T03:48:02.561Z,99.77
2022-08-25T03:49:02.587Z,99.98
2022-08-25T03:50:02.547Z,99.87
2022-08-25T03:51:02.600Z,99.77
2022-08-25T03:52:02.539Z,99.67
2022-08-25T03:53:02.489Z,99.67
2022-08-25T03:54:02.527Z,99.87
2022-08-25T03:55:02.468Z,99.87
2022-08-25T03:56:02.498Z,99.99
2022-08-25T03:57:03.311Z,99.99
2022-08-25T03:58:02.618Z,99.99
2022-08-25T03:59:02.803Z,99.99
2022-08-25T04:00:02.417Z,99.99
2022-08-25T04:01:02.429Z,99.99
2022-08-25T04:02:02.457Z,99.99
2022-08-25T04:03:02.410Z,99.99
2022-08-25T04:04:02.354Z,99.99
2022-08-25T04:05:02.350Z,99.99
2022-08-25T04:06:02.322Z,99.99
2022-08-25T04:07:02.312Z,99.99
2022-08-25T04:08:02.441Z,99.93
2022-08-25T04:09:02.294Z,99.99
2022-08-25T04:10:02.301Z,99.99
2022-08-25T04:11:02.298Z,99.99
2022-08-25T04:12:02.276Z,99.99
2022-08-25T04:13:02.286Z,99.99
2022-08-25T04:14:02.353Z,99.99
2022-08-25T04:15:02.251Z,99.99
2022-08-25T04:16:02.195Z,99.99
2022-08-25T04:17:16.067Z,99.99
2022-08-25T04:18:05.965Z,99.99
2022-08-25T04:19:02.342Z,99.99
2022-08-25T04:20:28.964Z,99.99
2022-08-25T04:21:05.222Z,99.99
2022-08-25T04:22:07.809Z,99.99
2022-08-25T04:23:03.575Z,99.99
2022-08-25T04:24:02.114Z,99.99
2022-08-25T04:25:02.088Z,99.99
2022-08-25T04:26:02.230Z,99.99
2022-08-25T04:27:02.116Z,99.99
2022-08-25T04:28:02.110Z,99.99
2022-08-25T04:29:02.061Z,99.99
2022-08-25T04:30:02.049Z,99.99
2022-08-25T04:31:01.990Z,99.99
2022-08-25T04:32:02.098Z,99.99
2022-08-25T04:33:01.994Z,99.99
2022-08-25T04:34:01.957Z,99.99
2022-08-25T04:35:02.762Z,99.99
2022-08-25T04:36:02.039Z,99.99
2022-08-25T04:37:02.012Z,99.98
2022-08-25T04:38:02.028Z,99.99
2022-08-25T04:39:02.062Z,99.99
2022-08-25T04:40:01.993Z,99.99
2022-08-25T04:41:01.864Z,99.99
2022-08-25T04:42:01.987Z,99.99
2022-08-25T04:43:01.851Z,99.99
2022-08-25T04:44:01.839Z,99.99
2022-08-25T04:45:01.891Z,99.99
2022-08-25T04:46:01.976Z,99.99
2022-08-25T04:47:01.884Z,99.99
2022-08-25T04:48:02.428Z,99.99
2022-08-25T04:49:01.770Z,99.99
2022-08-25T04:50:01.787Z,99.99
2022-08-25T04:51:01.740Z,99.99
2022-08-25T04:52:01.945Z,99.99
2022-08-25T04:53:01.756Z,99.99
2022-08-25T04:54:01.704Z,99.99
2022-08-25T04:55:01.726Z,99.93
2022-08-25T04:56:03.888Z,99.99
2022-08-25T04:57:08.310Z,99.99
2022-08-25T04:58:01.666Z,99.99
2022-08-25T04:59:01.699Z,99.99
2022-08-25T05:00:01.639Z,99.93
2022-08-25T05:01:01.881Z,99.93
2022-08-25T05:02:01.595Z,99.93
2022-08-25T05:03:01.659Z,99.99
2022-08-25T05:04:01.655Z,99.84
2022-08-25T05:05:01.569Z,99.84
2022-08-25T05:06:01.544Z,99.84
2022-08-25T05:07:01.558Z,99.79
2022-08-25T05:08:01.520Z,99.79
2022-08-25T05:09:01.572Z,99.68
2022-08-25T05:10:01.543Z,99.79
2022-08-25T05:11:01.521Z,99.68
2022-08-25T05:12:01.485Z,99.68
2022-08-25T05:13:01.515Z,99.68
2022-08-25T05:14:01.503Z,99.58
2022-08-25T05:15:01.662Z,99.48
2022-08-25T05:16:01.525Z,99.48
2022-08-25T05:17:01.403Z,99.48
2022-08-25T05:18:01.442Z,99.33
2022-08-25T05:19:01.487Z,99.44
2022-08-25T05:20:01.366Z,99.44
2022-08-25T05:21:02.004Z,99.33
2022-08-25T05:22:01.358Z,99.33
2022-08-25T05:23:01.327Z,99.24
2022-08-25T05:24:01.566Z,99.13
2022-08-25T05:25:01.301Z,99.13
2022-08-25T05:26:01.343Z,99.04
2022-08-25T05:27:01.286Z,99.13
2022-08-25T05:28:01.286Z,98.99
2022-08-25T05:29:01.297Z,98.99
2022-08-25T05:30:01.324Z,98.79
2022-08-25T05:31:01.235Z,98.79
2022-08-25T05:32:01.292Z,98.64
2022-08-25T05:33:04.921Z,98.44
2022-08-25T05:34:01.210Z,98.24
2022-08-25T05:35:01.212Z,98.13
2022-08-25T05:36:01.218Z,98.03
2022-08-25T05:37:01.156Z,97.89
2022-08-25T05:38:01.134Z,97.58
2022-08-25T05:39:01.131Z,97.58
2022-08-25T05:40:01.202Z,97.38
2022-08-25T05:41:01.121Z,97.03
2022-08-25T05:42:01.105Z,96.83
2022-08-25T05:43:01.290Z,97.03
2022-08-25T05:44:01.096Z,96.93
2022-08-25T05:45:01.060Z,96.78
2022-08-25T05:46:01.237Z,96.48
2022-08-25T05:47:01.047Z,95.78
2022-08-25T05:48:01.011Z,95.33
2022-08-25T05:49:00.993Z,95.43
2022-08-25T05:50:01.000Z,94.73
2022-08-25T05:51:01.005Z,94.73
2022-08-25T05:52:00.991Z,94.38
2022-08-25T05:53:00.939Z,94.59
2022-08-25T05:54:00.973Z,94.18
2022-08-25T05:55:00.945Z,94.79
2022-08-25T05:56:02.395Z,94.38
2022-08-25T05:57:00.881Z,93.78
2022-08-25T05:58:00.900Z,93.48
2022-08-25T05:59:00.877Z,93.38
2022-08-25T06:00:00.846Z,94.04
2022-08-25T06:01:00.839Z,93.23
2022-08-25T06:02:00.897Z,93.43
2022-08-25T06:03:00.800Z,93.54
2022-08-25T06:04:02.780Z,93.54
2022-08-25T06:05:00.843Z,93.43
2022-08-25T06:06:00.819Z,92.83
2022-08-25T06:07:00.798Z,92.93
2022-08-25T06:08:05.890Z,92.83
2022-08-25T06:09:01.629Z,93.03
2022-08-25T06:10:00.751Z,93.13
2022-08-25T06:11:00.713Z,92.63
2022-08-25T06:12:00.769Z,93.13
2022-08-25T06:13:00.676Z,93.13
2022-08-25T06:14:00.698Z,92.43
2022-08-25T06:15:00.639Z,92.23
2022-08-25T06:16:00.730Z,92.53
2022-08-25T06:17:01.699Z,92.33
2022-08-25T06:18:01.760Z,92.73
2022-08-25T06:19:00.661Z,93.19
2022-08-25T06:20:00.611Z,92.58
2022-08-25T06:21:04.235Z,92.18
2022-08-25T06:22:00.680Z,92.18
2022-08-25T06:23:00.552Z,92.69
2022-08-25T06:24:00.603Z,92.58
2022-08-25T06:25:00.556Z,91.78
2022-08-25T06:26:00.644Z,91.99
2022-08-25T06:27:00.521Z,91.94
2022-08-25T06:28:00.500Z,92.04
2022-08-25T06:29:00.463Z,91.74
2022-08-25T06:30:00.504Z,91.30
2022-08-25T06:31:01.515Z,90.49
2022-08-25T06:32:00.425Z,90.59
2022-08-25T06:33:04.485Z,90.49
2022-08-25T06:34:00.871Z,90.89
2022-08-25T06:35:00.440Z,90.49
2022-08-25T06:36:00.380Z,89.99
2022-08-25T06:37:00.390Z,90.05
2022-08-25T06:38:00.478Z,89.45
2022-08-25T06:39:00.385Z,89.54
2022-08-25T06:40:00.442Z,89.30
2022-08-25T06:41:00.372Z,88.50
2022-08-25T06:42:00.299Z,88.50
2022-08-25T06:43:01.193Z,88.40
2022-08-25T06:44:04.929Z,88.00
2022-08-25T06:45:06.796Z,88.10
2022-08-25T06:46:01.291Z,87.96
2022-08-25T06:47:04.219Z,87.46
2022-08-25T06:48:04.131Z,87.80
2022-08-25T06:49:09.981Z,87.86
2022-08-25T06:50:02.824Z,87.46
2022-08-25T06:51:00.293Z,87.66
2022-08-25T06:52:00.257Z,87.46
2022-08-25T06:53:00.230Z,87.55
2022-08-25T06:54:00.157Z,87.40
2022-08-25T06:55:00.125Z,87.96
2022-08-25T06:56:04.531Z,87.66
2022-08-25T06:57:01.107Z,87.55
2022-08-25T06:58:00.191Z,87.16
2022-08-25T06:59:00.101Z,87.16
2022-08-25T07:00:00.087Z,86.91
2022-08-25T07:01:00.123Z,86.41
2022-08-25T07:02:00.171Z,86.82
2022-08-25T07:03:00.097Z,86.68
2022-08-25T07:04:00.037Z,85.77
2022-08-25T07:05:00.007Z,85.77
2022-08-25T07:06:00.027Z,85.63
2022-08-25T07:07:00.062Z,85.33
2022-08-25T07:08:00.022Z,85.39
2022-08-25T07:08:59.992Z,85.09
2022-08-25T07:10:00.012Z,84.69
2022-08-25T07:10:59.955Z,83.75
2022-08-25T07:12:00.167Z,83.65
2022-08-25T07:12:59.978Z,83.61
2022-08-25T07:15:28.659Z,83.01
2022-08-25T07:16:14.919Z,83.11
2022-08-25T07:17:12.702Z,83.21
2022-08-25T07:18:11.026Z,83.31
2022-08-25T07:19:11.004Z,82.91
2022-08-25T07:20:13.878Z,82.87
2022-08-25T07:21:10.940Z,82.47
2022-08-25T07:22:10.920Z,81.87
2022-08-25T07:23:11.693Z,81.24
2022-08-25T07:24:10.964Z,81.04
2022-08-25T07:25:10.961Z,81.20
2022-08-25T07:26:33.693Z,80.50
2022-08-25T07:27:11.908Z,80.70
2022-08-25T07:28:10.864Z,80.50
2022-08-25T07:29:10.886Z,80.20
2022-08-25T07:30:11.381Z,79.86
2022-08-25T07:31:11.042Z,79.36
2022-08-25T07:32:10.879Z,78.97
2022-08-25T07:33:11.127Z,79.06
2022-08-25T07:34:10.778Z,79.66
2022-08-25T07:35:10.787Z,80.10
2022-08-25T07:36:10.797Z,79.50
2022-08-25T07:37:10.747Z,79.80
2022-08-25T07:38:13.073Z,79.60
2022-08-25T07:39:11.800Z,79.70
2022-08-25T07:40:10.828Z,80.10
2022-08-25T07:41:34.631Z,79.90
2022-08-25T07:42:14.734Z,79.76
2022-08-25T07:43:18.422Z,79.86
2022-08-25T07:44:11.583Z,79.66
2022-08-25T07:45:12.733Z,79.16
2022-08-25T07:46:12.029Z,79.36
2022-08-25T07:47:25.221Z,79.46
2022-08-25T07:48:18.872Z,79.22
2022-08-25T07:49:16.818Z,79.03
2022-08-25T07:50:13.803Z,78.19
2022-08-25T07:51:10.593Z,77.80
2022-08-25T07:52:10.619Z,77.56
2022-08-25T07:53:10.838Z,77.26
2022-08-25T07:54:10.514Z,77.16
2022-08-25T07:55:10.923Z,76.76
2022-08-25T07:56:10.469Z,76.66
2022-08-25T07:57:10.457Z,76.66
2022-08-25T07:58:10.513Z,76.56
2022-08-25T07:59:12.561Z,76.36
2022-08-25T08:00:10.494Z,76.26
2022-08-25T08:01:11.309Z,76.92
2022-08-25T08:02:18.544Z,76.36
2022-08-25T08:03:35.187Z,76.56
2022-08-25T08:04:12.162Z,76.36
2022-08-25T08:05:13.423Z,76.13
2022-08-25T08:06:10.460Z,76.23
2022-08-25T08:07:12.129Z,75.63
2022-08-25T08:08:11.468Z,75.63
2022-08-25T08:09:10.337Z,75.49
2022-08-25T08:11:11.292Z,75.33
2022-08-25T08:12:10.264Z,75.53
2022-08-25T08:13:10.589Z,75.33
2022-08-25T08:14:11.434Z,75.53
2022-08-25T08:15:10.781Z,75.83
2022-08-25T08:16:13.168Z,75.20
2022-08-25T08:17:12.071Z,75.49
2022-08-25T08:18:13.347Z,75.29
2022-08-25T08:19:13.022Z,75.29
2022-08-25T08:20:11.826Z,74.37
2022-08-25T08:21:11.642Z,74.07
2022-08-25T08:22:10.163Z,73.47
2022-08-25T08:23:10.136Z,74.07
2022-08-25T08:24:25.038Z,73.97
2022-08-25T08:25:11.183Z,74.26
2022-08-25T08:26:11.178Z,74.07
2022-08-25T08:27:10.107Z,73.33
2022-08-25T08:28:11.093Z,72.71
2022-08-25T08:29:10.058Z,72.20
2022-08-25T08:30:10.056Z,71.48
2022-08-25T08:31:10.930Z,71.28
2022-08-25T08:32:10.038Z,70.98
2022-08-25T08:33:11.625Z,71.08
2022-08-25T08:34:09.995Z,71.48
2022-08-25T08:35:09.971Z,71.18
2022-08-25T08:36:09.978Z,71.48
2022-08-25T08:37:10.525Z,72.11
2022-08-25T08:38:16.197Z,72.41
2022-08-25T08:39:10.907Z,73.00
2022-08-25T08:40:10.673Z,72.80
2022-08-25T08:41:09.934Z,72.17
2022-08-25T08:42:11.808Z,71.67
2022-08-25T08:43:18.016Z,71.28
2022-08-25T08:44:10.867Z,71.67
2022-08-25T08:45:10.517Z,70.98
2022-08-25T08:46:26.087Z,71.18
2022-08-25T08:47:10.490Z,70.75
2022-08-25T08:48:10.884Z,70.42
2022-08-25T08:49:10.514Z,69.53
2022-08-25T08:50:19.998Z,69.43
2022-08-25T08:51:39.868Z,69.53
2022-08-25T08:52:09.874Z,70.12
2022-08-25T08:53:13.455Z,69.39
2022-08-25T08:54:14.990Z,68.37
2022-08-25T08:55:10.860Z,67.87
2022-08-25T08:56:11.783Z,67.24
2022-08-25T08:57:11.218Z,66.82
2022-08-25T08:58:10.759Z,65.89
2022-08-25T08:59:09.823Z,65.59
2022-08-25T09:00:09.677Z,65.30
2022-08-25T09:01:09.659Z,64.78
2022-08-25T09:02:13.714Z,64.25
2022-08-25T09:03:09.640Z,64.25
2022-08-25T09:04:09.620Z,63.85
2022-08-25T09:05:10.612Z,63.36
2022-08-25T09:06:09.579Z,63.33
2022-08-25T09:07:12.220Z,63.16
2022-08-25T09:08:12.073Z,63.33
2022-08-25T09:09:10.615Z,62.93
2022-08-25T09:10:11.598Z,63.23
2022-08-25T09:11:10.354Z,62.84
2022-08-25T09:12:10.392Z,62.81
2022-08-25T09:13:13.314Z,62.93
2022-08-25T09:14:09.617Z,63.03
2022-08-25T09:15:12.835Z,62.51
2022-08-25T09:16:20.610Z,61.91
2022-08-25T09:17:10.424Z,61.59
2022-08-25T09:18:11.876Z,61.69
2022-08-25T09:19:09.447Z,61.49
2022-08-25T09:20:18.878Z,61.10
2022-08-25T09:21:10.361Z,61.79
2022-08-25T09:22:33.462Z,61.98
2022-08-25T09:23:10.387Z,61.85
2022-08-25T09:24:09.343Z,61.26
2022-08-25T09:25:09.303Z,61.26
2022-08-25T09:26:09.394Z,60.87
2022-08-25T09:27:09.310Z,61.26
2022-08-25T09:28:10.251Z,60.67
2022-08-25T09:29:16.285Z,60.57
2022-08-25T09:30:12.088Z,60.67
2022-08-25T09:31:13.273Z,60.50
2022-08-25T09:32:10.073Z,61.00
2022-08-25T09:33:11.588Z,61.42
2022-08-25T09:34:09.250Z,61.91
2022-08-25T09:35:09.242Z,61.91
2022-08-25T09:36:09.280Z,61.82
2022-08-25T09:37:09.227Z,61.52
2022-08-25T09:38:09.186Z,61.42
2022-08-25T09:39:09.998Z,61.94
2022-08-25T09:40:09.225Z,62.34
2022-08-25T09:41:09.110Z,62.63
2022-08-25T09:42:09.089Z,62.24
2022-08-25T09:43:09.138Z,62.24
2022-08-25T09:44:09.096Z,61.62
2022-08-25T09:45:09.983Z,61.52
2022-08-25T09:46:31.724Z,61.75
2022-08-25T09:47:10.972Z,61.85
2022-08-25T09:48:09.474Z,61.85
2022-08-25T09:49:09.044Z,61.94
2022-08-25T09:50:18.425Z,61.22
2022-08-25T09:51:12.458Z,60.41
2022-08-25T09:52:12.793Z,59.69
2022-08-25T09:53:18.722Z,59.00
2022-08-25T09:54:10.964Z,59.69
2022-08-25T09:55:10.066Z,60.18
2022-08-25T09:56:14.615Z,59.59
2022-08-25T09:57:09.065Z,59.39
2022-08-25T09:58:16.636Z,59.61
2022-08-25T09:59:15.566Z,60.24
2022-08-25T10:00:13.554Z,60.83
2022-08-25T10:01:18.320Z,60.93
2022-08-25T10:02:08.932Z,60.90
2022-08-25T10:03:08.967Z,60.80
2022-08-25T10:04:17.738Z,60.90
2022-08-25T10:05:09.870Z,60.31
2022-08-25T10:06:13.293Z,60.11
2022-08-25T10:07:08.790Z,60.83
2022-08-25T10:08:08.834Z,60.83
2022-08-25T10:09:09.611Z,60.60
2022-08-25T10:10:10.054Z,60.50
2022-08-25T10:11:09.067Z,60.70
2022-08-25T10:12:08.763Z,60.41
2022-08-25T10:13:08.958Z,60.08
2022-08-25T10:14:08.740Z,60.60
2022-08-25T10:15:08.757Z,61.00
2022-08-25T10:16:20.572Z,60.60
2022-08-25T10:17:09.656Z,61.29
2022-08-25T10:18:08.774Z,60.87
2022-08-25T10:19:08.675Z,60.77
2022-08-25T10:20:08.636Z,59.46
2022-08-25T10:21:08.593Z,59.16
2022-08-25T10:22:09.198Z,59.16
2022-08-25T10:23:08.557Z,59.00
2022-08-25T10:24:08.593Z,59.29
2022-08-25T10:25:08.639Z,59.29
2022-08-25T10:26:11.214Z,59.69
2022-08-25T10:27:08.507Z,59.39
2022-08-25T10:28:11.086Z,59.69
2022-08-25T10:29:15.620Z,59.75
2022-08-25T10:30:10.773Z,59.14
2022-08-25T10:31:09.634Z,58.34
2022-08-25T10:32:12.038Z,58.67
2022-08-25T10:33:13.935Z,59.36
2022-08-25T10:34:10.686Z,58.57
2022-08-25T10:35:08.417Z,58.37
2022-08-25T10:36:09.246Z,58.47
2022-08-25T10:37:09.317Z,58.37
2022-08-25T10:38:10.365Z,58.87
2022-08-25T10:39:36.311Z,58.57
2022-08-25T10:40:09.513Z,59.00
2022-08-25T10:41:08.353Z,59.19
2022-08-25T10:42:08.352Z,59.61
2022-08-25T10:43:08.734Z,60.33
2022-08-25T10:44:08.326Z,60.33
2022-08-25T10:45:08.270Z,60.43
2022-08-25T10:46:08.349Z,60.43
2022-08-25T10:47:09.420Z,59.94
2022-08-25T10:48:08.286Z,59.84
2022-08-25T10:49:09.215Z,60.04
2022-08-25T10:50:08.247Z,60.17
2022-08-25T10:51:16.134Z,60.86
2022-08-25T10:52:09.246Z,61.25
2022-08-25T10:53:12.815Z,61.05
2022-08-25T10:54:36.386Z,61.05
2022-08-25T10:55:09.648Z,60.76
2022-08-25T10:56:10.578Z,60.04
2022-08-25T10:57:11.028Z,60.04
2022-08-25T10:58:10.657Z,59.61
2022-08-25T10:59:15.842Z,59.39
2022-08-25T11:00:09.996Z,58.60
2022-08-25T11:01:08.474Z,58.18
2022-08-25T11:02:08.102Z,58.18
2022-08-25T11:03:08.288Z,58.60
2022-08-25T11:04:08.983Z,58.60
2022-08-25T11:05:08.064Z,58.89
2022-08-25T11:06:08.043Z,58.67
2022-08-25T11:07:08.015Z,58.40
2022-08-25T11:08:07.978Z,58.30
2022-08-25T11:09:07.963Z,58.87
2022-08-25T11:10:08.027Z,59.00
2022-08-25T11:11:07.982Z,59.19
2022-08-25T11:12:07.923Z,59.00
2022-08-25T11:13:12.560Z,58.08
2022-08-25T11:14:32.643Z,57.65
2022-08-25T11:15:08.972Z,57.26
2022-08-25T11:16:23.219Z,57.43
2022-08-25T11:17:09.938Z,57.33
2022-08-25T11:18:14.398Z,56.71
2022-08-25T11:19:08.845Z,56.12
2022-08-25T11:20:07.843Z,56.71
2022-08-25T11:21:08.820Z,56.62
2022-08-25T11:22:07.793Z,56.52
2022-08-25T11:23:07.940Z,56.84
2022-08-25T11:24:07.791Z,57.23
2022-08-25T11:25:07.870Z,57.43
2022-08-25T11:26:09.949Z,57.33
2022-08-25T11:27:13.669Z,57.33
2022-08-25T11:28:11.469Z,57.63
2022-08-25T11:29:12.020Z,57.75
2022-08-25T11:30:11.890Z,57.65
2022-08-25T11:31:09.515Z,57.56
2022-08-25T11:32:12.197Z,57.95
2022-08-25T11:33:12.967Z,57.95
2022-08-25T11:34:10.673Z,57.23
2022-08-25T11:35:20.231Z,57.33
2022-08-25T11:36:17.470Z,57.46
2022-08-25T11:37:15.214Z,57.56
2022-08-25T11:38:08.032Z,57.46
2022-08-25T11:39:07.735Z,57.86
2022-08-25T11:40:29.978Z,57.65
2022-08-25T11:41:11.425Z,57.56
2022-08-25T11:42:07.551Z,57.59
2022-08-25T11:43:08.275Z,57.75
2022-08-25T11:44:07.578Z,57.56
2022-08-25T11:45:07.518Z,57.14
2022-08-25T11:46:07.570Z,57.23
2022-08-25T11:47:07.501Z,57.14
2022-08-25T11:48:08.480Z,57.14
2022-08-25T11:49:07.584Z,56.94
2022-08-25T11:50:07.479Z,57.26
2022-08-25T11:51:07.431Z,57.65
2022-08-25T11:52:07.438Z,57.23
2022-08-25T11:53:07.435Z,57.46
2022-08-25T11:54:07.411Z,57.46
2022-08-25T11:55:07.443Z,57.86
2022-08-25T11:56:07.359Z,58.18
2022-08-25T11:57:07.416Z,58.67
2022-08-25T11:58:08.756Z,58.67
2022-08-25T11:59:07.357Z,58.87
2022-08-25T12:00:07.376Z,59.09
2022-08-25T12:01:07.357Z,59.61
2022-08-25T12:02:07.277Z,59.91
2022-08-25T12:03:07.377Z,60.01
2022-08-25T12:04:07.378Z,60.33
2022-08-25T12:05:08.625Z,60.33
2022-08-25T12:06:07.383Z,60.31
2022-08-25T12:07:07.888Z,60.11
2022-08-25T12:08:37.649Z,59.91
2022-08-25T12:09:07.927Z,59.91
2022-08-25T12:10:08.404Z,59.61
2022-08-25T12:11:14.874Z,59.19
2022-08-25T12:12:09.518Z,59.00
2022-08-25T12:13:10.554Z,59.39
2022-08-25T12:14:07.132Z,59.42
2022-08-25T12:15:07.166Z,59.71
2022-08-25T12:16:09.072Z,59.81
2022-08-25T12:17:07.095Z,59.81
2022-08-25T12:18:09.017Z,59.52
2022-08-25T12:19:07.152Z,59.42
2022-08-25T12:20:07.131Z,59.61
2022-08-25T12:21:07.065Z,59.61
2022-08-25T12:22:07.026Z,59.78
2022-08-25T12:23:07.017Z,59.59
2022-08-25T12:24:09.621Z,59.19
2022-08-25T12:25:13.262Z,59.00
2022-08-25T12:26:07.892Z,59.36
2022-08-25T12:27:14.784Z,59.19
2022-08-25T12:28:09.348Z,59.48
2022-08-25T12:29:07.786Z,59.29
2022-08-25T12:30:07.748Z,58.50
2022-08-25T12:31:11.611Z,57.59
2022-08-25T12:32:09.344Z,57.59
2022-08-25T12:33:07.915Z,57.49
2022-08-25T12:34:08.639Z,57.29
2022-08-25T12:35:07.040Z,57.19
2022-08-25T12:36:06.844Z,57.17
2022-08-25T12:37:06.903Z,56.96
2022-08-25T12:38:08.326Z,56.67
2022-08-25T12:39:07.046Z,56.25
2022-08-25T12:40:06.916Z,56.15
2022-08-25T12:41:06.866Z,56.15
2022-08-25T12:42:06.837Z,54.97
2022-08-25T12:43:07.143Z,55.07
2022-08-25T12:44:06.746Z,55.24
2022-08-25T12:45:06.784Z,55.24
2022-08-25T12:46:06.790Z,54.84
2022-08-25T12:47:06.727Z,54.84
2022-08-25T12:48:06.699Z,54.74
2022-08-25T12:49:06.706Z,54.57
2022-08-25T12:50:06.690Z,54.47
2022-08-25T12:51:06.683Z,54.68
2022-08-25T12:52:06.680Z,55.26
2022-08-25T12:53:06.953Z,55.14
2022-08-25T12:54:09.976Z,55.14